Time;durP1;ratioP1;P1;durP2;ratioP2;P2;SDS_P1;SDS_P2;PMS_P1;PMS_P2;Temp;Humidity;BMP_temperature;BMP_pressure;BME280_temperature;BME280_humidity;BME280_pressure;Samples;Min_cycle;Max_cycle;Signal;HPM_P1;HPM_P2
2023/07/14 00:01:17;;;;;;;36.90;33.42;;;13.50;99.90;;;;;;6128676;23;20013;-82
2023/07/14 00:03:43;;;;;;;36.03;32.83;;;13.50;99.90;;;;;;6105590;23;20067;-82
2023/07/14 00:06:12;;;;;;;34.55;31.45;;;13.50;99.90;;;;;;6105955;23;20025;-82
2023/07/14 00:08:39;;;;;;;31.40;28.65;;;13.50;99.90;;;;;;6105647;23;20005;-82
2023/07/14 00:11:24;;;;;;;32.58;29.77;;;13.40;99.90;;;;;;6105827;23;20505;-82
2023/07/14 00:13:51;;;;;;;37.67;33.92;;;13.40;99.90;;;;;;6106029;23;20006;-82
2023/07/14 00:16:23;;;;;;;33.00;29.73;;;13.40;99.90;;;;;;6105161;23;20016;-82
2023/07/14 00:18:49;;;;;;;35.72;32.60;;;13.40;99.90;;;;;;6105457;23;20017;-81
2023/07/14 00:21:21;;;;;;;32.75;29.73;;;13.40;99.90;;;;;;6105700;23;20351;-82
2023/07/14 00:23:47;;;;;;;34.88;31.33;;;13.40;99.90;;;;;;6105704;23;20017;-81
2023/07/14 00:26:15;;;;;;;34.17;30.98;;;13.40;99.90;;;;;;6123606;23;20016;-82
2023/07/14 00:28:42;;;;;;;34.20;30.90;;;13.40;99.90;;;;;;6130186;23;20315;-81
2023/07/14 00:31:16;;;;;;;35.47;32.08;;;13.40;99.90;;;;;;6130648;23;20132;-81
2023/07/14 00:33:43;;;;;;;32.33;29.52;;;13.40;99.90;;;;;;6130339;23;20355;-81
2023/07/14 00:36:10;;;;;;;31.35;28.45;;;13.40;99.90;;;;;;6129762;23;20021;-81
2023/07/14 00:38:36;;;;;;;31.38;28.50;;;13.40;99.90;;;;;;6129576;23;20013;-81
2023/07/14 00:41:02;;;;;;;33.10;30.00;;;13.40;99.90;;;;;;6130381;23;20358;-81
2023/07/14 00:43:30;;;;;;;29.90;27.17;;;13.40;99.90;;;;;;6130390;23;20024;-81
2023/07/14 00:45:57;;;;;;;33.65;30.70;;;13.30;99.90;;;;;;6129609;23;20017;-82
2023/07/14 00:48:27;;;;;;;30.60;27.85;;;13.40;99.90;;;;;;6129686;23;20005;-82
2023/07/14 00:51:09;;;;;;;28.33;25.75;;;13.30;99.90;;;;;;6154698;23;20033;-82
2023/07/14 00:53:37;;;;;;;30.08;27.48;;;13.30;99.90;;;;;;6130030;23;20101;-82
2023/07/14 00:56:15;;;;;;;29.08;26.45;;;13.30;99.90;;;;;;6129836;23;20454;-82
2023/07/14 00:58:47;;;;;;;31.38;28.50;;;13.30;99.90;;;;;;6129642;23;20040;-82
2023/07/14 01:01:21;;;;;;;29.63;27.10;;;13.20;99.90;;;;;;6130433;23;20084;-83
2023/07/14 01:03:50;;;;;;;28.00;25.50;;;13.30;99.90;;;;;;6130928;23;20009;-82
2023/07/14 01:06:17;;;;;;;28.60;25.95;;;13.20;99.90;;;;;;6130016;23;20052;-82
2023/07/14 01:08:50;;;;;;;33.10;29.80;;;13.20;99.90;;;;;;6154692;23;20484;-81
2023/07/14 01:11:18;;;;;;;;;;;13.10;99.90;;;;;;6131016;23;20009;-82
2023/07/14 01:13:43;;;;;;;28.95;26.08;;;13.10;99.90;;;;;;6130119;23;19920;-82
2023/07/14 01:16:14;;;;;;;29.23;26.33;;;13.10;99.90;;;;;;6153831;23;20009;-83
2023/07/14 01:18:41;;;;;;;27.73;25.13;;;13.10;99.90;;;;;;6129868;23;20013;-81
2023/07/14 01:21:08;;;;;;;28.33;25.73;;;13.10;99.90;;;;;;6129889;23;20037;-82
2023/07/14 01:24:13;;;;;;;29.08;26.33;;;13.00;99.90;;;;;;6154081;23;20459;-83
2023/07/14 01:27:00;;;;;;;28.65;25.88;;;13.00;99.90;;;;;;6129128;23;20108;-82
2023/07/14 01:29:25;;;;;;;32.75;29.35;;;12.90;99.90;;;;;;6130361;23;20048;-81
2023/07/14 01:31:53;;;;;;;28.02;25.55;;;12.90;99.90;;;;;;6129793;23;20010;-81
2023/07/14 01:34:18;;;;;;;30.45;27.45;;;13.00;99.90;;;;;;6153799;23;20014;-82
2023/07/14 01:36:45;;;;;;;27.58;25.10;;;12.90;99.90;;;;;;6128849;23;20014;-82
2023/07/14 01:39:11;;;;;;;37.83;30.75;;;12.80;99.90;;;;;;6129926;23;20088;-82
2023/07/14 01:41:37;;;;;;;32.00;28.52;;;12.80;99.90;;;;;;6154599;23;20013;-82
2023/07/14 01:44:05;;;;;;;32.30;28.42;;;12.80;99.90;;;;;;6129766;23;20018;-82
2023/07/14 01:46:31;;;;;;;28.92;25.95;;;12.80;99.90;;;;;;6153439;23;20327;-82
2023/07/14 01:48:57;;;;;;;22.20;20.20;;;12.80;99.90;;;;;;6129598;23;20113;-82
2023/07/14 01:51:24;;;;;;;26.58;23.88;;;12.80;99.90;;;;;;6154363;23;20104;-82
2023/07/14 01:54:15;;;;;;;23.65;21.52;;;12.80;99.90;;;;;;6129539;23;20010;-81
2023/07/14 01:56:43;;;;;;;23.67;21.42;;;12.80;99.90;;;;;;6154282;23;20761;-82
2023/07/14 01:59:25;;;;;;;22.90;20.75;;;12.80;99.90;;;;;;6129498;23;20209;-83
2023/07/14 02:01:53;;;;;;;25.60;22.92;;;12.80;99.90;;;;;;6129530;23;20009;-82
2023/07/14 02:04:24;;;;;;;19.95;18.13;;;12.70;99.90;;;;;;6129014;23;20021;-82
2023/07/14 02:06:50;;;;;;;23.15;21.08;;;12.70;99.90;;;;;;6128901;23;20049;-81
2023/07/14 02:09:23;;;;;;;23.85;21.65;;;12.70;99.90;;;;;;6129952;23;20028;-81
2023/07/14 02:11:53;;;;;;;24.60;22.13;;;12.70;99.90;;;;;;6154330;23;20637;-82
2023/07/14 02:14:21;;;;;;;22.13;20.02;;;12.50;99.90;;;;;;6153551;23;20100;-81
2023/07/14 02:16:48;;;;;;;24.38;21.90;;;12.60;99.90;;;;;;6129045;23;20013;-81
2023/07/14 02:19:25;;;;;;;27.45;24.65;;;12.60;99.90;;;;;;6153902;23;20014;-82
2023/07/14 02:21:52;;;;;;;26.88;24.17;;;12.60;99.90;;;;;;6129480;23;20055;-82
2023/07/14 02:24:27;;;;;;;27.73;24.75;;;12.50;99.90;;;;;;6152986;23;20350;-82
2023/07/14 02:27:16;;;;;;;23.15;20.77;;;12.60;99.90;;;;;;6176863;23;20024;-80
2023/07/14 02:30:05;;;;;;;35.53;28.65;;;12.60;99.90;;;;;;6153829;23;20024;-80
2023/07/14 02:33:13;;;;;;;23.20;21.00;;;12.60;99.90;;;;;;6160473;23;20013;-81
2023/07/14 02:36:48;;;;;;;20.63;18.67;;;12.50;99.90;;;;;;6139487;23;20049;-81
2023/07/14 02:39:38;;;;;;;20.92;18.83;;;12.50;99.90;;;;;;5987858;23;20349;-80
2023/07/14 02:42:56;;;;;;;25.05;22.85;;;12.50;99.90;;;;;;6016474;23;20027;-80
2023/07/14 02:46:53;;;;;;;23.05;20.70;;;12.50;99.90;;;;;;6008675;23;20060;-81
2023/07/14 02:49:36;;;;;;;23.85;21.50;;;12.50;99.90;;;;;;6067348;23;20017;-80
2023/07/14 02:52:54;;;;;;;23.98;21.70;;;12.50;99.90;;;;;;6128570;23;20076;-80
2023/07/14 02:55:44;;;;;;;26.65;23.98;;;12.40;99.90;;;;;;6009136;23;20411;-81
2023/07/14 02:59:05;;;;;;;;;;;;;;;;;;;;;
2023/07/14 03:04:39;;;;;;;27.95;25.05;;;12.40;99.90;;;;;;6153624;23;20083;-80
2023/07/14 03:10:39;;;;;;;28.17;24.38;;;12.30;99.90;;;;;;6106036;23;20028;-81
2023/07/14 03:13:18;;;;;;;27.15;24.48;;;12.20;99.90;;;;;;6130221;23;20009;-81
2023/07/14 03:15:57;;;;;;;;;;;;;;;;;;;;;
2023/07/14 03:18:53;;;;;;;31.15;28.05;;;12.20;99.90;;;;;;6153188;23;20072;-81
2023/07/14 03:21:37;;;;;;;31.25;28.27;;;12.20;99.90;;;;;;6126872;23;20038;-80
2023/07/14 03:24:14;;;;;;;32.90;29.65;;;12.10;99.90;;;;;;6152464;23;20063;-81
2023/07/14 03:27:16;;;;;;;32.30;29.20;;;12.10;99.90;;;;;;6134819;23;20009;-80
2023/07/14 03:29:54;;;;;;;31.10;28.25;;;12.10;99.90;;;;;;6128149;23;20013;-80
2023/07/14 03:32:35;;;;;;;36.25;31.02;;;12.10;99.90;;;;;;6149531;23;20021;-81
2023/07/14 03:35:27;;;;;;;35.10;31.65;;;12.10;99.90;;;;;;6152787;23;20053;-80
2023/07/14 03:42:05;;;;;;;37.88;32.88;;;12.20;99.90;;;;;;6156477;23;20385;-80
2023/07/14 03:45:18;;;;;;;32.45;29.38;;;12.20;99.90;;;;;;6130903;23;20020;-81
2023/07/14 03:48:49;;;;;;;32.00;28.63;;;12.30;99.90;;;;;;6077404;23;20034;-81
2023/07/14 03:52:05;;;;;;;36.15;32.40;;;12.30;99.90;;;;;;6019720;23;20151;-81
2023/07/14 03:54:50;;;;;;;31.85;28.85;;;12.30;99.90;;;;;;6135892;23;20017;-80
2023/07/14 03:57:50;;;;;;;34.65;31.13;;;12.30;99.90;;;;;;6126539;23;20472;-81
2023/07/14 04:01:01;;;;;;;29.92;27.25;;;12.40;99.90;;;;;;6129187;23;20354;-80
2023/07/14 04:03:46;;;;;;;29.75;26.85;;;12.40;99.90;;;;;;6132113;23;20013;-80
2023/07/14 04:06:46;;;;;;;31.77;28.88;;;12.40;99.90;;;;;;6129477;23;20446;-80
2023/07/14 04:09:58;;;;;;;32.08;29.33;;;12.50;99.90;;;;;;6130404;23;20316;-81
2023/07/14 04:12:58;;;;;;;29.63;26.92;;;12.50;99.90;;;;;;6129962;23;20045;-80
2023/07/14 04:15:47;;;;;;;33.03;29.80;;;12.60;99.90;;;;;;6130466;23;20112;-81
2023/07/14 04:18:29;;;;;;;37.15;33.25;;;12.70;99.90;;;;;;6107164;23;20025;-80
2023/07/14 04:21:45;;;;;;;36.03;32.63;;;12.80;99.90;;;;;;6128739;23;20017;-80
2023/07/14 04:24:41;;;;;;;38.33;34.47;;;12.90;99.90;;;;;;6129669;23;20561;-80
2023/07/14 04:27:15;;;;;;;;;;;13.00;99.90;;;;;;6129674;23;20022;-80
2023/07/14 04:29:59;;;;;;;33.45;30.27;;;13.00;99.90;;;;;;6130367;23;19916;-80
2023/07/14 04:32:57;;;;;;;31.55;28.50;;;13.10;99.90;;;;;;6154403;23;20013;-80
2023/07/14 04:35:37;;;;;;;30.48;27.67;;;13.20;99.90;;;;;;6104625;23;20033;-80
2023/07/14 04:45:02;;;;;;;30.13;27.42;;;13.40;99.90;;;;;;6153641;23;20017;-80
2023/07/14 04:51:00;;;;;;;34.83;31.65;;;13.50;99.90;;;;;;6136732;23;20025;-80
2023/07/14 04:53:46;;;;;;;30.65;27.88;;;13.60;99.90;;;;;;6114104;23;20449;-80
2023/07/14 04:56:29;;;;;;;34.80;31.42;;;13.60;99.90;;;;;;6108392;23;20382;-80
2023/07/14 04:59:04;;;;;;;31.40;28.63;;;13.80;99.90;;;;;;6141261;23;20294;-80
2023/07/14 05:01:39;;;;;;;31.52;28.63;;;13.80;99.90;;;;;;6133885;23;20092;-80
2023/07/14 05:04:16;;;;;;;30.17;27.50;;;13.90;99.90;;;;;;6129703;23;20140;-80
2023/07/14 05:07:04;;;;;;;31.13;28.23;;;14.00;99.90;;;;;;6131166;23;20425;-80
2023/07/14 05:09:35;;;;;;;34.83;31.70;;;14.00;99.90;;;;;;6110267;23;20097;-80
2023/07/14 05:12:18;;;;;;;34.60;31.48;;;14.20;99.90;;;;;;6133302;23;20014;-80
2023/07/14 05:15:01;;;;;;;35.45;32.10;;;14.20;99.90;;;;;;6131577;23;20022;-80
2023/07/14 05:17:56;;;;;;;30.60;28.10;;;14.30;99.90;;;;;;6130483;23;20035;-80
2023/07/14 05:20:37;;;;;;;34.47;31.65;;;14.40;99.90;;;;;;6152583;23;20481;-81
2023/07/14 05:23:03;;;;;;;31.17;28.48;;;14.70;99.90;;;;;;6130166;23;20020;-80
2023/07/14 05:25:34;;;;;;;35.63;32.42;;;14.80;99.90;;;;;;6131097;23;20068;-81
2023/07/14 05:28:14;;;;;;;31.40;28.80;;;14.80;99.90;;;;;;6130683;23;20024;-81
2023/07/14 05:31:14;;;;;;;;;;;;;;;;;;;;;
2023/07/14 05:33:57;;;;;;;35.65;32.58;;;14.90;99.90;;;;;;6152736;23;20064;-79
2023/07/14 05:36:32;;;;;;;32.30;29.60;;;15.20;99.90;;;;;;6129825;23;20382;-79
2023/07/14 05:39:06;;;;;;;30.27;27.73;;;15.80;99.90;;;;;;6129762;23;20017;-80
2023/07/14 05:41:58;;;;;;;;;;;;;;;;;;;;;
2023/07/14 05:45:03;;;;;;;24.60;22.38;;;17.30;99.90;;;;;;6154502;23;20384;-80
2023/07/14 05:47:48;;;;;;;23.25;21.17;;;18.00;99.90;;;;;;6123995;23;20048;-80
2023/07/14 05:50:42;;;;;;;22.55;20.55;;;18.50;99.90;;;;;;6139511;23;20092;-81
2023/07/14 05:53:23;;;;;;;21.17;19.38;;;18.80;99.90;;;;;;6129606;23;20335;-79
2023/07/14 05:55:55;;;;;;;21.13;19.23;;;19.20;99.90;;;;;;6127814;23;20017;-82
2023/07/14 05:58:27;;;;;;;18.42;16.80;;;19.30;99.90;;;;;;6126992;23;20107;-81
2023/07/14 06:01:10;;;;;;;18.13;16.58;;;19.40;99.90;;;;;;6128265;23;20021;-80
2023/07/14 06:03:57;;;;;;;17.85;16.33;;;19.20;99.90;;;;;;6132659;23;20017;-80
2023/07/14 06:07:34;;;;;;;;;;;;;;;;;;;;;
2023/07/14 06:11:00;;;;;;;20.13;18.23;;;18.50;99.90;;;;;;6138607;23;20017;-80
2023/07/14 06:14:46;;;;;;;;;;;;;;;;;;;;;
2023/07/14 06:34:18;;;;;;;20.38;18.67;;;17.40;99.90;;;;;;6108186;23;20065;-79
2023/07/14 06:43:49;;;;;;;18.42;16.52;;;17.30;99.90;;;;;;5921914;24;20025;-78
2023/07/14 06:49:10;;;;;;;16.08;14.68;;;17.20;99.90;;;;;;6038083;23;20015;-77
2023/07/14 06:51:36;;;;;;;16.42;14.63;;;17.30;99.90;;;;;;6050944;23;20066;-77
2023/07/14 06:54:01;;;;;;;16.73;15.32;;;17.30;99.90;;;;;;6157086;23;20009;-77
2023/07/14 06:56:27;;;;;;;15.63;14.13;;;17.30;99.90;;;;;;6157366;23;20079;-77
2023/07/14 06:58:53;;;;;;;13.27;11.68;;;17.40;99.90;;;;;;6132814;23;20016;-77
2023/07/14 07:01:21;;;;;;;12.32;10.40;;;17.40;99.90;;;;;;6131695;23;20048;-77
2023/07/14 07:03:46;;;;;;;12.98;11.73;;;17.40;99.90;;;;;;6128031;23;20060;-77
2023/07/14 07:06:15;;;;;;;11.70;10.60;;;17.50;99.90;;;;;;6127582;23;20021;-77
2023/07/14 07:08:41;;;;;;;11.32;10.23;;;17.60;99.90;;;;;;6127431;23;20092;-77
2023/07/14 07:11:09;;;;;;;12.13;10.38;;;17.60;99.90;;;;;;6127834;23;20060;-77
2023/07/14 07:13:35;;;;;;;12.13;10.68;;;17.50;99.90;;;;;;6127482;23;20014;-77
2023/07/14 07:16:01;;;;;;;12.23;10.82;;;17.60;99.90;;;;;;6101168;23;20053;-77
2023/07/14 07:18:27;;;;;;;12.23;9.63;;;17.70;99.90;;;;;;6125646;23;20009;-77
2023/07/14 07:20:53;;;;;;;11.73;10.45;;;17.70;99.90;;;;;;6127243;23;20109;-78
2023/07/14 07:23:19;;;;;;;10.07;9.07;;;17.80;99.90;;;;;;6126860;23;20057;-77
2023/07/14 07:25:49;;;;;;;11.23;10.13;;;17.80;99.90;;;;;;6127087;23;20390;-77
2023/07/14 07:28:16;;;;;;;9.90;8.75;;;17.90;99.90;;;;;;6127513;23;20017;-77
2023/07/14 07:30:41;;;;;;;9.98;8.98;;;18.00;99.90;;;;;;6127766;23;20413;-77
2023/07/14 07:33:07;;;;;;;9.50;8.60;;;17.90;99.90;;;;;;6127489;23;20037;-77
2023/07/14 07:35:37;;;;;;;12.25;9.88;;;18.10;99.90;;;;;;6127831;23;20382;-77
2023/07/14 07:38:02;;;;;;;10.20;9.18;;;18.20;99.90;;;;;;6127544;23;20092;-77
2023/07/14 07:40:28;;;;;;;8.88;7.47;;;18.30;99.90;;;;;;6127791;23;20048;-77
2023/07/14 07:42:54;;;;;;;8.65;6.72;;;18.70;99.90;;;;;;6127237;23;20350;-77
2023/07/14 07:45:19;;;;;;;7.13;6.35;;;19.00;99.90;;;;;;6127714;23;20457;-77
2023/07/14 07:47:45;;;;;;;6.10;5.50;;;19.10;99.90;;;;;;6127353;23;20341;-77
2023/07/14 07:50:11;;;;;;;5.80;4.93;;;19.20;99.90;;;;;;6127774;23;20010;-77
2023/07/14 07:52:37;;;;;;;8.00;5.25;;;19.30;99.90;;;;;;6138334;23;20389;-77
2023/07/14 07:55:03;;;;;;;6.38;5.57;;;19.50;99.90;;;;;;6152054;23;20104;-78
2023/07/14 07:57:29;;;;;;;8.50;5.80;;;19.80;99.90;;;;;;6152003;23;20009;-78
2023/07/14 07:59:54;;;;;;;8.30;5.50;;;20.40;99.90;;;;;;6152160;23;20460;-78
2023/07/14 08:02:20;;;;;;;8.75;5.22;;;20.90;99.90;;;;;;6149683;23;20072;-78
2023/07/14 08:04:49;;;;;;;8.75;5.10;;;21.40;99.90;;;;;;6153275;23;20027;-78
2023/07/14 08:07:15;;;;;;;7.63;4.60;;;21.70;99.90;;;;;;6152316;23;20093;-79
2023/07/14 08:09:41;;;;;;;6.78;5.53;;;21.90;99.90;;;;;;6127123;23;20479;-80
2023/07/14 08:12:07;;;;;;;6.97;5.15;;;22.10;99.90;;;;;;6151989;23;20458;-78
2023/07/14 08:14:54;;;;;;;8.02;5.50;;;22.30;99.90;;;;;;6151835;23;20005;-78
2023/07/14 08:17:33;;;;;;;7.80;4.90;;;22.80;99.90;;;;;;6151912;23;20021;-78
2023/07/14 08:19:59;;;;;;;5.45;4.40;;;23.20;99.90;;;;;;6151728;23;20024;-78
2023/07/14 08:22:26;;;;;;;6.85;4.70;;;23.30;99.90;;;;;;6151430;23;20615;-78
2023/07/14 08:24:54;;;;;;;6.38;4.80;;;23.20;99.90;;;;;;6153718;23;20014;-81
2023/07/14 08:27:19;;;;;;;6.50;4.88;;;22.90;99.90;;;;;;6152175;23;20485;-78
2023/07/14 08:29:45;;;;;;;5.57;4.80;;;22.70;99.90;;;;;;6127317;23;20014;-78
2023/07/14 08:32:11;;;;;;;6.90;4.45;;;22.80;99.90;;;;;;6153457;23;20335;-77
2023/07/14 08:34:36;;;;;;;6.75;5.03;;;22.80;99.90;;;;;;6153525;23;20009;-78
2023/07/14 08:37:04;;;;;;;7.38;4.93;;;22.70;99.90;;;;;;6153528;23;20025;-77
2023/07/14 08:39:32;;;;;;;6.38;4.95;;;22.70;99.90;;;;;;6153752;23;20052;-77
2023/07/14 08:42:16;;;;;;;8.38;5.47;;;22.90;99.90;;;;;;6153305;23;20010;-77
2023/07/14 08:44:44;;;;;;;7.03;4.60;;;22.70;99.90;;;;;;6128409;23;20096;-77
2023/07/14 08:47:22;;;;;;;6.90;4.97;;;22.40;99.90;;;;;;6152442;23;20025;-77
2023/07/14 08:50:22;;;;;;;7.43;4.82;;;22.40;99.90;;;;;;6153189;23;20014;-78
2023/07/14 08:52:51;;;;;;;7.60;4.72;;;23.00;99.90;;;;;;6088996;23;20089;-77
2023/07/14 08:55:21;;;;;;;5.60;4.57;;;23.60;99.90;;;;;;6152466;23;20146;-77
2023/07/14 08:58:01;;;;;;;6.68;4.95;;;24.10;99.90;;;;;;6152536;23;20020;-78
2023/07/14 09:01:02;;;;;;;5.90;4.28;;;24.60;99.90;;;;;;6152948;23;20010;-78
2023/07/14 09:03:45;;;;;;;5.80;4.78;;;24.80;99.90;;;;;;6128081;23;20040;-77
2023/07/14 09:06:35;;;;;;;6.00;4.95;;;25.20;99.90;;;;;;6152995;23;20323;-80
2023/07/14 09:09:02;;;;;;;8.25;4.93;;;25.50;99.90;;;;;;6152669;23;20512;-77
2023/07/14 09:12:11;;;;;;;6.45;4.35;;;25.70;99.90;;;;;;6153304;23;20088;-79
2023/07/14 09:14:37;;;;;;;6.18;4.50;;;25.80;98.30;;;;;;6039641;23;20097;-78
2023/07/14 09:17:17;;;;;;;6.05;4.15;;;25.80;99.90;;;;;;6103150;23;20508;-79
2023/07/14 09:20:07;;;;;;;6.05;4.00;;;25.90;80.30;;;;;;6153086;23;20378;-78
2023/07/14 09:22:47;;;;;;;5.43;3.95;;;25.90;77.60;;;;;;6152479;23;20060;-77
2023/07/14 09:25:38;;;;;;;6.78;4.10;;;25.90;99.20;;;;;;6152090;23;20017;-79
2023/07/14 09:28:14;;;;;;;5.07;4.10;;;26.20;99.90;;;;;;6151597;23;20005;-78
2023/07/14 09:30:40;;;;;;;6.82;4.00;;;26.60;99.90;;;;;;6152446;23;20378;-79
2023/07/14 09:33:12;;;;;;;6.35;4.53;;;26.90;93.40;;;;;;6152706;23;20010;-79
2023/07/14 09:35:40;;;;;;;5.95;4.13;;;27.10;87.00;;;;;;6152067;23;20080;-79
2023/07/14 09:38:19;;;;;;;7.03;4.15;;;27.10;81.80;;;;;;6152191;23;20472;-79
2023/07/14 09:40:50;;;;;;;5.05;3.75;;;27.30;71.50;;;;;;6151145;23;20044;-78
2023/07/14 09:43:15;;;;;;;6.00;3.80;;;26.90;69.70;;;;;;6151188;23;20952;-78
2023/07/14 09:45:41;;;;;;;7.10;4.00;;;26.70;72.20;;;;;;6152455;23;20049;-79
2023/07/14 09:48:31;;;;;;;4.72;3.60;;;27.00;92.70;;;;;;6152855;23;20128;-79
2023/07/14 09:51:00;;;;;;;6.40;4.10;;;27.30;93.00;;;;;;6153056;23;20025;-78
2023/07/14 09:53:31;;;;;;;5.00;3.70;;;27.50;76.90;;;;;;6152508;23;20009;-78
2023/07/14 09:56:03;;;;;;;4.78;3.20;;;27.00;70.30;;;;;;6126332;23;20093;-78
2023/07/14 09:58:31;;;;;;;6.13;3.40;;;26.30;71.50;;;;;;6152030;23;20033;-79
2023/07/14 10:00:59;;;;;;;6.78;3.63;;;26.10;86.00;;;;;;6152135;23;20033;-79
2023/07/14 10:03:30;;;;;;;5.93;4.15;;;26.50;84.60;;;;;;6127648;23;20009;-80
2023/07/14 10:06:03;;;;;;;4.82;3.47;;;26.60;77.50;;;;;;6152727;23;20024;-78
2023/07/14 10:08:33;;;;;;;4.47;3.33;;;26.80;74.70;;;;;;6152994;23;20009;-78
2023/07/14 10:11:12;;;;;;;4.78;3.25;;;26.90;71.50;;;;;;6128709;23;20446;-79
2023/07/14 10:13:39;;;;;;;5.70;3.53;;;27.10;73.90;;;;;;6154162;23;20541;-79
2023/07/14 10:16:14;;;;;;;4.47;3.35;;;27.50;74.60;;;;;;6154289;23;20018;-80
2023/07/14 10:19:11;;;;;;;5.07;3.15;;;27.40;68.40;;;;;;6156112;23;20354;-81
2023/07/14 10:21:38;;;;;;;5.03;3.13;;;26.80;62.50;;;;;;6154369;23;20024;-77
2023/07/14 10:24:18;;;;;;;5.28;3.20;;;26.10;65.30;;;;;;6152757;23;20064;-79
2023/07/14 10:26:51;;;;;;;4.70;3.20;;;25.50;66.70;;;;;;6128100;23;20024;-78
2023/07/14 10:29:20;;;;;;;7.85;3.78;;;25.20;67.50;;;;;;6151466;23;20014;-78
2023/07/14 10:31:52;;;;;;;4.57;3.55;;;24.70;68.50;;;;;;6149732;23;20009;-78
2023/07/14 10:34:42;;;;;;;4.80;3.40;;;24.30;88.80;;;;;;6127254;23;20014;-78
2023/07/14 10:37:40;;;;;;;5.97;4.10;;;24.10;99.90;;;;;;6152100;23;20032;-78
2023/07/14 10:40:30;;;;;;;6.75;3.90;;;23.90;99.90;;;;;;6150693;23;20406;-78
2023/07/14 10:43:04;;;;;;;5.20;3.90;;;23.90;99.90;;;;;;6126377;23;20025;-80
2023/07/14 10:45:32;;;;;;;6.05;4.50;;;24.40;99.90;;;;;;6151913;23;20389;-77
2023/07/14 10:48:13;;;;;;;5.63;3.90;;;24.90;99.90;;;;;;6127055;23;20013;-80
2023/07/14 10:50:57;;;;;;;5.82;4.05;;;25.60;82.40;;;;;;6152907;23;20060;-77
2023/07/14 10:53:38;;;;;;;6.43;3.85;;;25.90;82.20;;;;;;6151484;23;20076;-78
2023/07/14 10:56:14;;;;;;;6.78;4.20;;;25.80;92.30;;;;;;6127055;23;20421;-77
2023/07/14 10:58:46;;;;;;;5.93;4.28;;;25.50;99.30;;;;;;6151293;23;20010;-77
2023/07/14 11:01:22;;;;;;;5.95;4.13;;;25.20;83.20;;;;;;6151054;23;20022;-76
2023/07/14 11:03:57;;;;;;;5.72;4.50;;;24.80;89.80;;;;;;6127646;23;20061;-76
2023/07/14 11:06:34;;;;;;;7.10;5.28;;;24.20;96.90;;;;;;6150972;23;20534;-76
2023/07/14 11:08:59;;;;;;;5.85;5.07;;;23.90;99.90;;;;;;6151683;23;20461;-79
2023/07/14 11:11:42;;;;;;;7.03;4.80;;;23.90;99.90;;;;;;6127480;23;20033;-77
2023/07/14 11:14:58;;;;;;;6.07;5.10;;;24.00;99.90;;;;;;6152233;23;20017;-77
2023/07/14 11:18:03;;;;;;;6.70;5.25;;;24.10;99.90;;;;;;6125989;23;20055;-77
2023/07/14 11:20:45;;;;;;;7.88;5.10;;;24.20;99.90;;;;;;6088008;23;20013;-77
2023/07/14 11:23:32;;;;;;;6.15;5.05;;;24.20;99.90;;;;;;6151318;23;20017;-77
2023/07/14 11:26:17;;;;;;;6.88;4.75;;;24.00;99.90;;;;;;6150953;23;20017;-77
2023/07/14 11:28:55;;;;;;;8.43;4.88;;;23.70;99.90;;;;;;6151091;23;20025;-77
2023/07/14 11:31:27;;;;;;;6.75;4.60;;;23.40;99.90;;;;;;6126513;23;20473;-77
2023/07/14 11:34:28;;;;;;;5.05;4.25;;;23.20;99.90;;;;;;6151542;23;20017;-77
2023/07/14 11:37:31;;;;;;;6.72;5.20;;;23.10;99.90;;;;;;6151733;23;20020;-77
2023/07/14 11:40:01;;;;;;;6.65;5.38;;;23.50;99.90;;;;;;6152297;23;20018;-77
2023/07/14 11:42:33;;;;;;;7.15;5.20;;;24.00;99.90;;;;;;6150581;23;20542;-77
2023/07/14 11:45:03;;;;;;;8.27;5.83;;;24.10;99.90;;;;;;6151962;23;20529;-77
2023/07/14 11:47:41;;;;;;;10.02;6.32;;;24.20;99.90;;;;;;6151399;23;20260;-77
2023/07/14 11:50:15;;;;;;;7.85;6.30;;;24.00;97.00;;;;;;6152377;23;20009;-77
2023/07/14 11:52:55;;;;;;;9.35;6.57;;;23.60;99.90;;;;;;6152151;23;20328;-77
2023/07/14 11:55:23;;;;;;;9.05;7.65;;;23.50;99.90;;;;;;6151789;23;20014;-77
2023/07/14 11:58:04;;;;;;;7.85;6.88;;;23.40;99.90;;;;;;6151231;23;20017;-77
2023/07/14 12:00:44;;;;;;;8.32;6.63;;;23.40;99.90;;;;;;6153885;23;20084;-77
2023/07/14 12:03:47;;;;;;;7.72;6.03;;;23.40;99.90;;;;;;6153171;23;20064;-77
2023/07/14 12:06:18;;;;;;;7.03;5.75;;;23.60;99.90;;;;;;6117931;23;20354;-77
2023/07/14 12:08:58;;;;;;;7.55;5.97;;;23.90;99.90;;;;;;6129134;23;20010;-77
2023/07/14 12:11:30;;;;;;;6.80;5.20;;;24.40;99.90;;;;;;6153468;23;20013;-77
2023/07/14 12:13:58;;;;;;;6.43;5.30;;;25.00;99.90;;;;;;6128936;23;20010;-77
2023/07/14 12:16:28;;;;;;;7.05;5.82;;;25.40;99.90;;;;;;6153578;23;20009;-77
2023/07/14 12:18:56;;;;;;;7.35;5.65;;;25.80;98.00;;;;;;6153857;23;20009;-77
2023/07/14 12:21:54;;;;;;;6.78;5.60;;;26.00;98.80;;;;;;6152141;23;20020;-78
2023/07/14 12:24:26;;;;;;;7.88;5.95;;;25.80;77.80;;;;;;6148155;23;20211;-78
2023/07/14 12:27:03;;;;;;;7.78;5.88;;;25.40;90.40;;;;;;6154265;23;20040;-79
2023/07/14 12:29:28;;;;;;;6.68;5.68;;;25.20;87.40;;;;;;6132649;23;20009;-78
2023/07/14 12:31:56;;;;;;;6.80;5.47;;;25.00;90.60;;;;;;6152950;23;20014;-78
2023/07/14 12:34:24;;;;;;;7.43;5.53;;;24.80;96.60;;;;;;6129529;23;20088;-78
2023/07/14 12:36:50;;;;;;;6.93;5.93;;;24.80;99.50;;;;;;6129313;23;20010;-78
2023/07/14 12:39:16;;;;;;;6.57;5.30;;;24.70;99.90;;;;;;6153929;23;20020;-78
2023/07/14 12:41:49;;;;;;;7.90;5.65;;;24.70;99.90;;;;;;6153483;23;20013;-78
2023/07/14 12:44:24;;;;;;;7.18;5.82;;;24.70;99.90;;;;;;6128835;23;20349;-78
2023/07/14 12:46:51;;;;;;;7.38;5.28;;;24.80;99.90;;;;;;6152552;23;20024;-78
2023/07/14 12:49:37;;;;;;;6.47;5.13;;;24.90;99.90;;;;;;6153109;23;20010;-78
2023/07/14 12:52:28;;;;;;;6.47;5.25;;;25.00;98.80;;;;;;6153774;23;20454;-79
2023/07/14 12:54:59;;;;;;;7.13;5.47;;;25.10;99.90;;;;;;6108192;23;20013;-79
2023/07/14 12:57:24;;;;;;;5.55;4.88;;;24.90;90.50;;;;;;6128568;23;20048;-79
2023/07/14 12:59:51;;;;;;;6.93;5.50;;;24.60;93.90;;;;;;6129193;23;20323;-79
2023/07/14 13:02:17;;;;;;;6.60;5.13;;;24.30;98.50;;;;;;6152644;23;20009;-78
2023/07/14 13:04:44;;;;;;;7.28;5.05;;;24.20;99.90;;;;;;6153427;23;20084;-78
2023/07/14 13:07:18;;;;;;;5.35;4.70;;;24.10;99.90;;;;;;6128737;23;20071;-78
2023/07/14 13:09:44;;;;;;;7.32;5.03;;;24.00;99.90;;;;;;6153423;23;20010;-78
2023/07/14 13:12:14;;;;;;;6.72;5.00;;;23.90;99.90;;;;;;6152545;23;20013;-78
2023/07/14 13:14:48;;;;;;;5.47;4.68;;;23.90;99.90;;;;;;6152706;23;20006;-78
2023/07/14 13:17:25;;;;;;;6.63;4.70;;;23.90;99.90;;;;;;6152879;23;20446;-78
2023/07/14 13:19:51;;;;;;;5.82;4.30;;;23.90;99.90;;;;;;6153084;23;20014;-78
2023/07/14 13:22:31;;;;;;;8.32;4.88;;;23.70;99.90;;;;;;6152838;23;20654;-78
2023/07/14 13:25:06;;;;;;;7.15;5.22;;;23.60;99.90;;;;;;6153421;23;20036;-78
2023/07/14 13:27:36;;;;;;;5.25;4.70;;;23.60;99.90;;;;;;6152951;23;20013;-78
2023/07/14 13:30:30;;;;;;;8.02;5.65;;;23.60;99.90;;;;;;6128790;23;20010;-78
2023/07/14 13:32:56;;;;;;;;;;;23.60;99.90;;;;;;6129651;23;20084;-78
2023/07/14 13:35:28;;;;;;;7.68;4.93;;;23.70;99.90;;;;;;6153372;23;19983;-78
2023/07/14 13:38:00;;;;;;;7.78;5.45;;;23.90;99.90;;;;;;6152866;23;20013;-78
2023/07/14 13:40:31;;;;;;;7.22;5.07;;;24.10;99.90;;;;;;6153260;23;20186;-78
2023/07/14 13:43:02;;;;;;;6.15;4.90;;;24.30;99.90;;;;;;6153643;23;20541;-78
2023/07/14 13:45:57;;;;;;;6.45;4.30;;;24.50;99.90;;;;;;6153184;23;20045;-79
2023/07/14 13:48:30;;;;;;;7.60;4.72;;;24.80;98.80;;;;;;6152129;23;20017;-79
2023/07/14 13:50:56;;;;;;;6.38;4.18;;;24.80;99.90;;;;;;6152140;23;20009;-79
2023/07/14 13:53:22;;;;;;;4.90;3.40;;;24.80;99.90;;;;;;6148064;23;20095;-79
2023/07/14 13:55:47;;;;;;;5.32;3.15;;;24.70;98.20;;;;;;6151323;23;20354;-79
2023/07/14 13:58:13;;;;;;;5.25;3.03;;;24.80;93.90;;;;;;6152262;23;20024;-79
2023/07/14 14:00:40;;;;;;;7.53;3.30;;;25.00;92.50;;;;;;6149749;23;20024;-79
2023/07/14 14:03:06;;;;;;;4.53;2.95;;;25.40;90.10;;;;;;6152129;23;20017;-79
2023/07/14 14:05:37;;;;;;;4.68;2.97;;;25.70;83.30;;;;;;6152098;23;20087;-79
2023/07/14 14:08:04;;;;;;;4.90;3.25;;;26.00;82.50;;;;;;6151318;23;20080;-79
2023/07/14 14:10:30;;;;;;;7.32;3.75;;;26.50;73.40;;;;;;6152739;23;20017;-79
2023/07/14 14:12:58;;;;;;;5.05;3.20;;;26.70;72.20;;;;;;6153291;23;20315;-78
2023/07/14 14:15:28;;;;;;;4.78;2.80;;;26.60;70.20;;;;;;6154235;23;20044;-79
2023/07/14 14:17:58;;;;;;;4.35;2.95;;;26.40;67.90;;;;;;6156106;23;20089;-79
2023/07/14 14:20:27;;;;;;;3.83;3.00;;;26.20;67.50;;;;;;6155404;23;20021;-79
2023/07/14 14:22:54;;;;;;;4.60;2.90;;;26.10;65.60;;;;;;6153252;23;20013;-77
2023/07/14 14:25:22;;;;;;;3.80;2.85;;;26.00;66.30;;;;;;6151994;23;20014;-78